This is the latest recevied weather packets stored in our database for station/object AI5KP-13. If no packets are shown the sender has not sent any weather packets the latest 1 day(s).
| Time | Temp. | Humidity | Pressure | Rain* | Wind** | Luminosity | Snow |
|---|---|---|---|---|---|---|---|
| 1778014350 | 16.11° C | 87% | 1005.3 hPa | 0 mm | 2.68 m/s, 346° | 83 W/m² | - |
| 1778014046 | 16.11° C | 86% | 1005.2 hPa | 0 mm | 2.68 m/s, 350° | 86 W/m² | - |
| 1778013744 | 16.11° C | 86% | 1005.2 hPa | 0 mm | 2.24 m/s, 15° | 103 W/m² | - |
| 1778013441 | 16.67° C | 85% | 1005.7 hPa | 0 mm | 1.34 m/s, 9° | 94 W/m² | - |
| 1778013138 | 16.67° C | 85% | 1005.5 hPa | 0 mm | 0 m/s | 113 W/m² | - |
| 1778012833 | 16.67° C | 85% | 1005.4 hPa | 0 mm | 0.45 m/s, 44° | 138 W/m² | - |
| 1778012530 | 16.11° C | 86% | 1005.5 hPa | 0 mm | 0.89 m/s, 15° | 136 W/m² | - |
| 1778012226 | 16.11° C | 87% | 1005.7 hPa | 0 mm | 0.89 m/s, 309° | 74 W/m² | - |
| 1778011927 | 16.11° C | 88% | 1005.5 hPa | 0 mm | 1.79 m/s, 23° | 78 W/m² | - |
| 1778011622 | 15.56° C | 89% | 1005.6 hPa | 0 mm | 2.24 m/s, 350° | 145 W/m² | - |
| 1778011319 | 16.11° C | 88% | 1005.6 hPa | 0 mm | 2.24 m/s, 42° | 79 W/m² | - |
| 1778011014 | 16.11° C | 87% | 1005.7 hPa | 0 mm | 0.89 m/s, 350° | 63 W/m² | - |
| 1778010712 | 16.67° C | 86% | 1005.6 hPa | 0 mm | 3.13 m/s, 24° | 65 W/m² | - |
| 1778010409 | 16.67° C | 87% | 1005.6 hPa | 0 mm | 3.13 m/s, 22° | 172 W/m² | - |
| 1778010105 | 16.67° C | 87% | 1005.4 hPa | 0 mm | 2.68 m/s, 351° | 94 W/m² | - |
| 1778009802 | 16.67° C | 87% | 1005.4 hPa | 0 mm | 4.92 m/s, 28° | 104 W/m² | - |
| 1778009499 | 16.67° C | 88% | 1005.5 hPa | 0 mm | 4.92 m/s, 355° | 71 W/m² | - |
| 1778009198 | 17.22° C | 88% | 1005 hPa | 0 mm | 4.47 m/s, 339° | 42 W/m² | - |
| 1778008894 | 17.78° C | 87% | 1004.8 hPa | 0 mm | 3.58 m/s, 342° | 42 W/m² | - |
| 1778008593 | 20° C | 85% | 1003.9 hPa | 0 mm | 3.13 m/s, 7° | 108 W/m² | - |
| 1778008290 | 23.89° C | 77% | 1004 hPa | 0 mm | 3.13 m/s, 190° | 171 W/m² | - |
| 1778007986 | 23.33° C | 76% | 1004.1 hPa | 0 mm | 2.68 m/s, 157° | 355 W/m² | - |
| 1778007681 | 22.78° C | 78% | 1004.5 hPa | 0 mm | 1.79 m/s, 166° | 277 W/m² | - |
| 1778007378 | 22.78° C | 77% | 1004.2 hPa | 0 mm | 0.89 m/s, 211° | 431 W/m² | - |
| 1778007074 | 22.22° C | 81% | 1004.3 hPa | 0 mm | 2.24 m/s, 184° | 278 W/m² | - |
* Rain latest hour (hover to see other rain measurements)
** Current wind speed in m/s (hover to see current wind gust speed)